createdAt,value
2022-10-01T00:02:19.778Z,11.84
2022-10-01T00:07:23.146Z,11.82
2022-10-01T00:12:26.244Z,11.83
2022-10-01T00:17:30.155Z,11.86
2022-10-01T00:22:36.428Z,11.87
2022-10-01T00:27:40.053Z,11.93
2022-10-01T00:32:43.096Z,12.01
2022-10-01T00:37:51.188Z,12.05
2022-10-01T00:42:54.373Z,12.01
2022-10-01T00:48:03.404Z,11.96
2022-10-01T00:53:13.140Z,11.95
2022-10-01T00:58:16.387Z,11.98
2022-10-01T01:03:19.555Z,11.93
2022-10-01T01:08:22.836Z,11.91
2022-10-01T01:14:06.233Z,11.89
2022-10-01T01:19:50.828Z,11.92
2022-10-01T01:25:21.802Z,11.95
2022-10-01T01:30:24.962Z,11.91
2022-10-01T01:35:35.038Z,11.95
2022-10-01T01:40:41.767Z,11.93
2022-10-01T01:45:45.731Z,11.88
2022-10-01T01:50:59.300Z,11.92
2022-10-01T01:56:06.445Z,11.92
2022-10-01T02:01:40.398Z,11.94
2022-10-01T02:07:20.665Z,11.97
2022-10-01T02:12:35.722Z,11.93
2022-10-01T02:18:07.449Z,11.87
2022-10-01T02:23:18.092Z,11.83
2022-10-01T02:28:24.160Z,11.92
2022-10-01T02:33:36.544Z,12.01
2022-10-01T02:38:43.803Z,12.06
2022-10-01T02:44:11.967Z,12.04
2022-10-01T02:49:15.154Z,11.97
2022-10-01T02:54:42.691Z,11.91
2022-10-01T02:59:45.829Z,11.99
2022-10-01T03:04:48.985Z,12.05
2022-10-01T03:09:52.371Z,12.02
2022-10-01T03:14:55.568Z,11.95
2022-10-01T03:19:58.683Z,11.90
2022-10-01T03:25:01.986Z,11.84
2022-10-01T03:30:06.126Z,11.83
2022-10-01T03:35:10.042Z,11.88
2022-10-01T03:40:13.226Z,11.97
2022-10-01T03:45:16.446Z,11.99
2022-10-01T03:50:22.110Z,11.97
2022-10-01T03:55:25.606Z,12.03
2022-10-01T04:00:28.706Z,12.09
2022-10-01T04:05:31.781Z,12.15
2022-10-01T04:10:35.456Z,12.18
2022-10-01T04:15:38.275Z,12.17
2022-10-01T04:20:42.749Z,12.10
2022-10-01T04:25:45.940Z,11.99
2022-10-01T04:30:49.095Z,11.91
2022-10-01T04:35:52.240Z,11.85
2022-10-01T04:40:55.543Z,11.87
2022-10-01T04:45:59.031Z,11.86
2022-10-01T04:51:02.138Z,11.80
2022-10-01T04:56:05.582Z,11.73
2022-10-01T05:01:08.765Z,11.67
2022-10-01T05:06:11.939Z,11.69
2022-10-01T05:11:15.044Z,11.74
2022-10-01T05:16:18.337Z,11.72
2022-10-01T05:21:21.544Z,11.72
2022-10-01T05:26:25.402Z,11.74
2022-10-01T05:31:28.436Z,11.72
2022-10-01T05:36:31.789Z,11.78
2022-10-01T05:41:35.156Z,11.92
2022-10-01T05:46:38.341Z,12.06
2022-10-01T05:51:41.366Z,12.14
2022-10-01T05:56:44.478Z,12.16
2022-10-01T06:01:48.136Z,12.16
2022-10-01T06:06:51.148Z,12.22
2022-10-01T06:11:54.344Z,12.28
2022-10-01T06:16:57.496Z,12.29
2022-10-01T06:22:00.666Z,12.27
2022-10-01T06:27:03.992Z,12.24
2022-10-01T06:32:08.746Z,12.22
2022-10-01T06:37:11.848Z,12.28
2022-10-01T06:42:14.833Z,12.39
2022-10-01T06:47:18.079Z,12.44
2022-10-01T06:52:40.209Z,12.48
2022-10-01T06:57:43.575Z,12.48
2022-10-01T07:02:46.812Z,12.53
2022-10-01T07:07:50.479Z,12.62
2022-10-01T07:12:53.491Z,12.71
2022-10-01T07:17:56.626Z,12.78
2022-10-01T07:23:01.386Z,12.73
2022-10-01T07:28:08.275Z,12.69
2022-10-01T07:33:11.270Z,12.70
2022-10-01T07:38:14.323Z,12.74
2022-10-01T07:43:17.406Z,12.81
2022-10-01T07:48:20.516Z,12.86
2022-10-01T07:53:25.731Z,12.84
2022-10-01T07:58:28.796Z,12.78
2022-10-01T08:03:31.789Z,12.76
2022-10-01T08:08:34.879Z,12.78
2022-10-01T08:13:38.043Z,12.81
2022-10-01T08:18:41.241Z,12.88
2022-10-01T08:23:44.268Z,12.89
2022-10-01T08:28:47.243Z,12.89
2022-10-01T08:33:50.994Z,12.91
2022-10-01T08:38:54.083Z,12.97
2022-10-01T08:43:59.104Z,13.03
2022-10-01T08:49:07.159Z,13.02
2022-10-01T08:54:59.836Z,12.98
2022-10-01T09:00:08.703Z,12.95
2022-10-01T09:05:31.700Z,12.96
2022-10-01T09:10:37.486Z,13.04
2022-10-01T09:16:13.626Z,13.10
2022-10-01T09:21:40.015Z,13.11
2022-10-01T09:26:49.722Z,13.06
2022-10-01T09:31:55.339Z,13.03
2022-10-01T09:37:15.342Z,13.06
2022-10-01T09:42:18.667Z,13.15
2022-10-01T09:47:25.995Z,13.21
2022-10-01T09:52:40.070Z,13.22
2022-10-01T09:57:56.625Z,13.15
2022-10-01T10:03:01.083Z,13.04
2022-10-01T10:08:32.181Z,12.97
2022-10-01T10:13:50.697Z,12.98
2022-10-01T10:19:00.741Z,13.09
2022-10-01T10:24:24.736Z,13.18
2022-10-01T10:29:32.491Z,13.24
2022-10-01T10:34:42.702Z,13.24
2022-10-01T10:39:54.028Z,13.37
2022-10-01T10:45:03.762Z,13.50
2022-10-01T10:50:46.872Z,13.67
2022-10-01T10:56:02.494Z,13.85
2022-10-01T11:01:17.614Z,13.88
2022-10-01T11:06:21.020Z,13.93
2022-10-01T11:11:55.534Z,13.95
2022-10-01T11:17:42.360Z,13.96
2022-10-01T11:23:16.116Z,14.03
2022-10-01T11:28:46.721Z,14.11
2022-10-01T11:34:30.061Z,14.16
2022-10-01T11:39:35.963Z,14.25
2022-10-01T11:45:00.698Z,14.30
2022-10-01T11:50:13.663Z,14.23
2022-10-01T11:55:48.163Z,14.16
2022-10-01T12:01:38.803Z,14.17
2022-10-01T12:07:07.257Z,14.23
2022-10-01T12:12:44.878Z,14.36
2022-10-01T12:18:06.893Z,14.41
2022-10-01T12:23:19.772Z,14.46
2022-10-01T12:28:36.592Z,14.49
2022-10-01T12:34:28.752Z,14.48
2022-10-01T12:40:05.406Z,14.45
2022-10-01T12:45:28.523Z,14.48
2022-10-01T12:51:07.676Z,14.56
2022-10-01T12:56:33.813Z,14.66
2022-10-01T13:01:59.426Z,14.68
2022-10-01T13:07:27.021Z,14.66
2022-10-01T13:12:44.996Z,14.63
2022-10-01T13:18:06.359Z,14.60
2022-10-01T13:23:27.579Z,14.58
2022-10-01T13:29:00.803Z,14.65
2022-10-01T13:34:24.595Z,14.70
2022-10-01T13:39:38.860Z,14.72
2022-10-01T13:44:43.629Z,14.72
2022-10-01T13:50:07.680Z,14.65
2022-10-01T13:55:30.996Z,14.66
2022-10-01T14:00:34.368Z,14.69
2022-10-01T14:05:43.522Z,14.73
2022-10-01T14:11:39.280Z,14.80
2022-10-01T14:16:46.833Z,14.84
2022-10-01T14:22:27.282Z,14.80
2022-10-01T14:28:29.082Z,14.77
2022-10-01T14:34:05.965Z,14.71
2022-10-01T14:39:23.503Z,14.71
2022-10-01T14:44:50.575Z,14.73
2022-10-01T14:49:55.400Z,14.78
2022-10-01T14:55:13.969Z,14.75
2022-10-01T15:00:30.430Z,14.64
2022-10-01T15:05:36.038Z,14.57
2022-10-01T15:10:56.080Z,14.56
2022-10-01T15:16:00.074Z,14.60
2022-10-01T15:21:06.889Z,14.65
2022-10-01T15:26:18.725Z,14.64
2022-10-01T15:31:22.104Z,14.58
2022-10-01T15:36:25.093Z,14.50
2022-10-01T15:41:34.093Z,14.46
2022-10-01T15:46:37.445Z,14.48
2022-10-01T15:52:11.001Z,14.52
2022-10-01T15:57:23.706Z,14.51
2022-10-01T16:02:31.710Z,14.46
2022-10-01T16:07:35.617Z,14.40
2022-10-01T16:12:39.209Z,14.38
2022-10-01T16:17:53.719Z,14.41
2022-10-01T16:23:35.038Z,14.46
2022-10-01T16:28:38.522Z,14.48
2022-10-01T16:33:41.589Z,14.45
2022-10-01T16:38:44.583Z,14.41
2022-10-01T16:43:47.673Z,14.39
2022-10-01T16:48:54.087Z,14.40
2022-10-01T16:53:58.187Z,14.44
2022-10-01T16:59:01.282Z,14.45
2022-10-01T17:04:04.911Z,14.44
2022-10-01T17:09:08.956Z,14.41
2022-10-01T17:14:18.723Z,14.35
2022-10-01T17:19:22.269Z,14.38
2022-10-01T17:24:25.665Z,14.39
2022-10-01T17:29:31.043Z,14.41
2022-10-01T17:34:35.925Z,14.36
2022-10-01T17:39:39.877Z,14.30
2022-10-01T17:44:42.947Z,14.23
2022-10-01T17:49:46.146Z,14.21
2022-10-01T17:54:49.686Z,14.22
2022-10-01T17:59:52.560Z,14.29
2022-10-01T18:04:55.719Z,14.37
2022-10-01T18:09:58.779Z,14.37
2022-10-01T18:15:02.546Z,14.34
2022-10-01T18:20:08.171Z,14.31
2022-10-01T18:25:14.055Z,14.33
2022-10-01T18:30:18.456Z,14.36
2022-10-01T18:35:31.875Z,14.33
2022-10-01T18:40:44.145Z,14.26
2022-10-01T18:46:39.267Z,14.22
2022-10-01T18:52:05.931Z,14.21
2022-10-01T18:57:21.247Z,14.18
2022-10-01T19:02:32.169Z,14.16
2022-10-01T19:07:50.286Z,14.16
2022-10-01T19:13:23.232Z,14.13
2022-10-01T19:18:38.039Z,14.07
2022-10-01T19:23:55.972Z,14.04
2022-10-01T19:29:28.864Z,14.02
2022-10-01T19:34:50.241Z,13.98
2022-10-01T19:40:02.296Z,14.00
2022-10-01T19:45:29.196Z,13.95
2022-10-01T19:50:37.397Z,13.91
2022-10-01T19:55:40.434Z,13.91
2022-10-01T20:00:47.408Z,13.94
2022-10-01T20:06:09.812Z,13.98
2022-10-01T20:11:51.851Z,14.00
2022-10-01T20:16:54.975Z,13.93
2022-10-01T20:22:33.390Z,13.84
2022-10-01T20:27:55.371Z,13.78
2022-10-01T20:33:12.009Z,13.82
2022-10-01T20:38:49.937Z,13.81
2022-10-01T20:44:00.397Z,13.73
2022-10-01T20:49:27.431Z,13.68
2022-10-01T20:54:39.327Z,13.69
2022-10-01T20:59:51.606Z,13.71
2022-10-01T21:05:34.974Z,13.74
2022-10-01T21:10:43.490Z,13.79
2022-10-01T21:16:12.370Z,13.68
2022-10-01T21:21:55.063Z,13.64
2022-10-01T21:27:51.457Z,13.64
2022-10-01T21:33:10.840Z,13.50
2022-10-01T21:38:43.191Z,13.39
2022-10-01T21:43:57.279Z,13.25
2022-10-01T21:49:22.758Z,13.18
2022-10-01T21:55:06.104Z,13.12
2022-10-01T22:00:19.504Z,13.07
2022-10-01T22:05:42.461Z,13.03
2022-10-01T22:10:57.138Z,13.01
2022-10-01T22:16:07.815Z,13.02
2022-10-01T22:21:41.195Z,13.04
2022-10-01T22:26:59.827Z,13.00
2022-10-01T22:32:05.669Z,12.92
2022-10-01T22:37:18.693Z,12.88
2022-10-01T22:42:33.531Z,12.89
2022-10-01T22:47:57.622Z,12.92
2022-10-01T22:53:32.779Z,12.91
2022-10-01T22:58:42.218Z,12.79
2022-10-01T23:04:30.108Z,12.73
2022-10-01T23:09:40.022Z,12.74
2022-10-01T23:15:09.711Z,12.78
2022-10-01T23:20:30.576Z,12.78
2022-10-01T23:26:11.214Z,12.72
2022-10-01T23:31:35.367Z,12.68
2022-10-01T23:36:49.243Z,12.69
2022-10-01T23:42:34.986Z,12.69
2022-10-01T23:47:58.888Z,12.62
2022-10-01T23:53:31.532Z,12.56
2022-10-01T23:58:54.169Z,12.52
